createdAt,value
2022-09-11T00:01:16.958Z,63.48
2022-09-11T00:03:46.016Z,62.58
2022-09-11T00:06:27.467Z,63.30
2022-09-11T00:09:01.467Z,65.48
2022-09-11T00:11:31.497Z,65.41
2022-09-11T00:13:59.551Z,65.14
2022-09-11T00:16:28.556Z,64.15
2022-09-11T00:18:58.848Z,64.94
2022-09-11T00:21:26.497Z,64.46
2022-09-11T00:23:53.891Z,64.14
2022-09-11T00:26:21.995Z,64.25
2022-09-11T00:28:50.662Z,67.62
2022-09-11T00:31:24.388Z,65.89
2022-09-11T00:33:52.292Z,63.55
2022-09-11T00:36:27.776Z,63.55
2022-09-11T00:38:56.317Z,64.42
2022-09-11T00:41:29.709Z,62.42
2022-09-11T00:44:18.781Z,65.14
2022-09-11T00:46:53.232Z,62.93
2022-09-11T00:49:34.811Z,66.52
2022-09-11T00:52:08.544Z,67.43
2022-09-11T00:54:57.965Z,68.03
2022-09-11T00:57:29.171Z,68.07
2022-09-11T00:59:58.717Z,64.63
2022-09-11T01:02:27.582Z,63.74
2022-09-11T01:04:55.952Z,63.82
2022-09-11T01:07:25.707Z,66.13
2022-09-11T01:09:53.600Z,65.02
2022-09-11T01:12:44.330Z,64.67
2022-09-11T01:15:22.230Z,65.48
2022-09-11T01:17:49.411Z,65.43
2022-09-11T01:20:23.635Z,65.77
2022-09-11T01:22:59.094Z,65.06
2022-09-11T01:25:36.884Z,65.27
2022-09-11T01:28:09.237Z,65.46
2022-09-11T01:30:41.913Z,64.14
2022-09-11T01:33:14.624Z,63.33
2022-09-11T01:36:06.038Z,64.42
2022-09-11T01:38:43.243Z,64.74
2022-09-11T01:41:16.443Z,64.44
2022-09-11T01:44:07.209Z,65.76
2022-09-11T01:46:45.041Z,63.11
2022-09-11T01:49:18.093Z,63.58
2022-09-11T01:51:47.448Z,64.20
2022-09-11T01:54:17.139Z,64.07
2022-09-11T01:56:51.696Z,63.73
2022-09-11T01:59:26.139Z,62.90
2022-09-11T02:02:02.029Z,66.28
2022-09-11T02:04:33.964Z,66.50
2022-09-11T02:07:08.126Z,67.39
2022-09-11T02:10:01.490Z,65.72
2022-09-11T02:12:37.251Z,66.22
2022-09-11T02:15:05.307Z,67.77
2022-09-11T02:17:37.773Z,65.59
2022-09-11T02:20:05.716Z,64.50
2022-09-11T02:22:33.285Z,64.86
2022-09-11T02:25:02.488Z,63.48
2022-09-11T02:27:31.914Z,63.59
2022-09-11T02:30:00.507Z,63.75
2022-09-11T02:32:32.438Z,62.94
2022-09-11T02:35:00.269Z,64.58
2022-09-11T02:37:55.666Z,63.21
2022-09-11T02:40:49.430Z,64.50
2022-09-11T02:43:51.828Z,64.47
2022-09-11T02:46:19.415Z,63.38
2022-09-11T02:49:20.118Z,63.01
2022-09-11T02:51:47.575Z,63.50
2022-09-11T02:54:21.340Z,62.56
2022-09-11T02:56:53.656Z,65.33
2022-09-11T02:59:28.943Z,65.17
2022-09-11T03:01:59.638Z,64.95
2022-09-11T03:04:27.056Z,63.51
2022-09-11T03:06:55.242Z,63.79
2022-09-11T03:09:22.815Z,63.30
2022-09-11T03:11:50.270Z,64.67
2022-09-11T03:14:17.771Z,64.58
2022-09-11T03:16:45.632Z,64.65
2022-09-11T03:19:13.331Z,64.37
2022-09-11T03:21:40.665Z,64.33
2022-09-11T03:24:09.237Z,63.41
2022-09-11T03:26:37.240Z,63.27
2022-09-11T03:29:04.924Z,63.87
2022-09-11T03:31:34.469Z,63.62
2022-09-11T03:34:04.902Z,64.95
2022-09-11T03:36:34.341Z,63.86
2022-09-11T03:39:02.268Z,66.48
2022-09-11T03:41:30.889Z,65.15
2022-09-11T03:43:58.523Z,64.58
2022-09-11T03:46:26.164Z,64.15
2022-09-11T03:48:53.899Z,63.72
2022-09-11T03:51:21.329Z,63.58
2022-09-11T03:53:48.913Z,62.67
2022-09-11T03:56:16.258Z,64.19
2022-09-11T03:58:44.808Z,65.00
2022-09-11T04:01:14.162Z,65.92
2022-09-11T04:03:42.560Z,68.24
2022-09-11T04:06:10.771Z,70.04
2022-09-11T04:08:40.082Z,70.47
2022-09-11T04:11:09.721Z,68.62
2022-09-11T04:13:39.866Z,68.53
2022-09-11T04:16:14.597Z,65.38
2022-09-11T04:18:43.151Z,66.04
2022-09-11T04:21:13.908Z,65.12
2022-09-11T04:23:41.690Z,66.35
2022-09-11T04:26:15.945Z,65.50
2022-09-11T04:28:43.994Z,63.27
2022-09-11T04:31:12.981Z,64.08
2022-09-11T04:33:41.064Z,63.42
2022-09-11T04:36:12.982Z,65.76
2022-09-11T04:38:41.491Z,64.45
2022-09-11T04:41:10.514Z,63.99
2022-09-11T04:43:40.309Z,63.59
2022-09-11T04:46:18.234Z,63.18
2022-09-11T04:48:47.307Z,63.48
2022-09-11T04:51:22.706Z,64.11
2022-09-11T04:53:51.893Z,63.85
2022-09-11T04:56:22.503Z,63.65
2022-09-11T04:58:58.306Z,63.76
2022-09-11T05:01:27.374Z,64.70
2022-09-11T05:03:56.196Z,65.78
2022-09-11T05:06:23.864Z,66.68
2022-09-11T05:08:51.878Z,64.87
2022-09-11T05:11:20.970Z,64.58
2022-09-11T05:13:49.413Z,63.77
2022-09-11T05:16:17.463Z,63.26
2022-09-11T05:18:52.047Z,65.44
2022-09-11T05:21:21.086Z,66.48
2022-09-11T05:23:50.928Z,64.89
2022-09-11T05:26:20.737Z,65.20
2022-09-11T05:28:51.254Z,65.12
2022-09-11T05:31:19.088Z,66.42
2022-09-11T05:33:46.871Z,65.73
2022-09-11T05:36:15.521Z,64.91
2022-09-11T05:38:46.459Z,66.00
2022-09-11T05:41:15.596Z,66.11
2022-09-11T05:43:43.757Z,65.00
2022-09-11T05:46:16.408Z,64.39
2022-09-11T05:48:45.898Z,64.29
2022-09-11T05:51:15.822Z,65.11
2022-09-11T05:53:43.610Z,60.26
2022-09-11T05:56:14.224Z,57.86
2022-09-11T05:58:42.090Z,58.09
2022-09-11T06:01:15.429Z,57.00
2022-09-11T06:03:43.938Z,57.11
2022-09-11T06:06:12.541Z,59.59
2022-09-11T06:08:44.145Z,57.42
2022-09-11T06:11:13.953Z,56.36
2022-09-11T06:13:43.146Z,57.14
2022-09-11T06:16:15.840Z,58.62
2022-09-11T06:18:49.415Z,57.28
2022-09-11T06:21:20.567Z,57.91
2022-09-11T06:23:50.788Z,56.72
2022-09-11T06:26:21.411Z,55.80
2022-09-11T06:28:50.851Z,54.92
2022-09-11T06:31:19.930Z,54.39
2022-09-11T06:33:47.465Z,56.24
2022-09-11T06:36:19.792Z,55.50
2022-09-11T06:38:51.681Z,54.58
2022-09-11T06:41:20.834Z,54.97
2022-09-11T06:43:49.283Z,57.33
2022-09-11T06:46:19.958Z,56.22
2022-09-11T06:48:49.814Z,55.40
2022-09-11T06:51:21.662Z,56.11
2022-09-11T06:53:55.215Z,56.25
2022-09-11T06:56:22.812Z,55.72
2022-09-11T06:58:50.974Z,55.13
2022-09-11T07:01:20.152Z,55.28
2022-09-11T07:03:50.442Z,56.67
2022-09-11T07:06:22.832Z,55.79
2022-09-11T07:08:52.356Z,56.45
2022-09-11T07:11:20.710Z,56.22
2022-09-11T07:13:48.253Z,57.88
2022-09-11T07:16:16.454Z,57.35
2022-09-11T07:18:47.228Z,54.65
2022-09-11T07:21:18.785Z,53.87
2022-09-11T07:23:51.745Z,54.31
2022-09-11T07:26:20.998Z,55.89
2022-09-11T07:28:52.261Z,54.86
2022-09-11T07:31:22.154Z,53.08
2022-09-11T07:33:50.957Z,53.50
2022-09-11T07:36:21.334Z,57.51
2022-09-11T07:38:50.886Z,55.95
2022-09-11T07:41:21.307Z,53.16
2022-09-11T07:44:00.109Z,53.92
2022-09-11T07:46:29.900Z,54.89
2022-09-11T07:49:02.855Z,50.11
2022-09-11T07:51:30.733Z,52.64
2022-09-11T07:54:00.145Z,53.00
2022-09-11T07:56:29.097Z,50.37
2022-09-11T07:58:57.455Z,50.88
2022-09-11T08:01:27.555Z,54.31
2022-09-11T08:04:03.599Z,53.42
2022-09-11T08:06:32.947Z,50.72
2022-09-11T08:09:03.726Z,55.08
2022-09-11T08:11:32.385Z,55.84
2022-09-11T08:13:59.770Z,54.10
2022-09-11T08:16:28.383Z,54.49
2022-09-11T08:18:56.968Z,53.93
2022-09-11T08:21:26.173Z,52.37
2022-09-11T08:23:53.773Z,53.44
2022-09-11T08:26:23.613Z,52.37
2022-09-11T08:28:53.090Z,54.24
2022-09-11T08:31:22.972Z,54.90
2022-09-11T08:33:50.512Z,56.34
2022-09-11T08:36:17.883Z,54.74
2022-09-11T08:38:46.252Z,55.43
2022-09-11T08:41:31.215Z,54.52
2022-09-11T08:44:12.067Z,53.99
2022-09-11T08:46:48.179Z,53.16
2022-09-11T08:49:22.002Z,53.77
2022-09-11T08:51:51.468Z,50.69
2022-09-11T08:54:27.602Z,51.18
2022-09-11T08:57:05.622Z,54.10
2022-09-11T08:59:58.145Z,53.88
2022-09-11T09:02:46.776Z,52.98
2022-09-11T09:05:21.115Z,53.29
2022-09-11T09:08:11.382Z,54.55
2022-09-11T09:11:19.141Z,51.61
2022-09-11T09:14:05.315Z,51.51
2022-09-11T09:16:59.573Z,50.18
2022-09-11T09:19:52.678Z,48.95
2022-09-11T09:22:27.300Z,49.65
2022-09-11T09:25:00.312Z,51.11
2022-09-11T09:27:35.719Z,51.13
2022-09-11T09:30:06.200Z,52.21
2022-09-11T09:32:42.113Z,51.77
2022-09-11T09:35:20.110Z,50.23
2022-09-11T09:37:48.772Z,50.04
2022-09-11T09:40:18.586Z,50.10
2022-09-11T09:43:00.853Z,50.66
2022-09-11T09:45:50.342Z,53.50
2022-09-11T09:48:18.194Z,50.59
2022-09-11T09:50:45.769Z,51.00
2022-09-11T09:53:27.550Z,48.52
2022-09-11T09:55:56.686Z,48.96
2022-09-11T09:58:32.785Z,47.99
2022-09-11T10:01:00.489Z,49.81
2022-09-11T10:03:28.127Z,46.92
2022-09-11T10:05:56.372Z,48.10
2022-09-11T10:08:35.526Z,49.62
2022-09-11T10:11:12.246Z,50.10
2022-09-11T10:13:43.802Z,49.96
2022-09-11T10:16:23.654Z,48.65
2022-09-11T10:18:51.117Z,49.22
2022-09-11T10:21:29.843Z,49.21
2022-09-11T10:24:04.228Z,48.02
2022-09-11T10:26:35.250Z,49.34
2022-09-11T10:29:14.336Z,49.41
2022-09-11T10:31:49.091Z,49.16
2022-09-11T10:34:17.273Z,51.55
2022-09-11T10:37:07.803Z,52.02
2022-09-11T10:39:36.544Z,48.43
2022-09-11T10:42:17.396Z,51.40
2022-09-11T10:44:45.573Z,52.57
2022-09-11T10:47:17.407Z,50.89
2022-09-11T10:49:45.614Z,51.58
2022-09-11T10:52:13.058Z,50.97
2022-09-11T10:55:06.344Z,51.46
2022-09-11T10:57:47.689Z,51.63
2022-09-11T11:00:27.159Z,49.74
2022-09-11T11:02:56.406Z,49.35
2022-09-11T11:05:45.772Z,49.54
2022-09-11T11:08:45.942Z,49.44
2022-09-11T11:11:16.815Z,47.76
2022-09-11T11:14:02.584Z,49.65
2022-09-11T11:16:45.429Z,49.93
2022-09-11T11:19:38.681Z,48.88
2022-09-11T11:22:28.494Z,48.11
2022-09-11T11:25:05.108Z,49.20
2022-09-11T11:28:06.670Z,49.24
2022-09-11T11:30:42.142Z,47.90
2022-09-11T11:33:22.659Z,46.96
2022-09-11T11:35:53.065Z,48.72
2022-09-11T11:38:48.043Z,46.66
2022-09-11T11:41:19.842Z,45.45
2022-09-11T11:43:48.869Z,45.63
2022-09-11T11:46:21.771Z,43.84
2022-09-11T11:48:48.954Z,45.91
2022-09-11T11:51:24.308Z,46.73
2022-09-11T11:53:59.099Z,45.82
2022-09-11T11:56:33.258Z,46.28
2022-09-11T11:59:19.575Z,45.84
2022-09-11T12:01:54.514Z,47.17
2022-09-11T12:04:47.206Z,44.64
2022-09-11T12:07:18.917Z,45.07
2022-09-11T12:09:52.119Z,43.63
2022-09-11T12:12:21.201Z,44.91
2022-09-11T12:15:19.776Z,45.59
2022-09-11T12:17:49.974Z,48.97
2022-09-11T12:20:41.937Z,51.61
2022-09-11T12:23:33.412Z,58.55
2022-09-11T12:26:08.881Z,60.98
2022-09-11T12:28:37.939Z,60.88
2022-09-11T12:31:11.319Z,61.25
2022-09-11T12:33:41.684Z,62.33
2022-09-11T12:36:25.684Z,62.33
2022-09-11T12:39:24.890Z,62.15
2022-09-11T12:41:52.870Z,62.46
2022-09-11T12:44:31.699Z,66.96
2022-09-11T12:46:59.251Z,61.79
2022-09-11T12:49:27.272Z,63.38
2022-09-11T12:51:56.634Z,64.84
2022-09-11T12:54:47.273Z,60.72
2022-09-11T12:57:35.284Z,62.22
2022-09-11T13:00:10.860Z,60.93
2022-09-11T13:02:42.170Z,59.26
2022-09-11T13:05:18.342Z,59.02
2022-09-11T13:07:50.733Z,60.82
2022-09-11T13:10:38.280Z,61.40
2022-09-11T13:13:27.122Z,59.06
2022-09-11T13:15:58.014Z,58.92
2022-09-11T13:18:33.605Z,60.06
2022-09-11T13:21:12.192Z,60.48
2022-09-11T13:23:39.861Z,59.85
2022-09-11T13:26:07.985Z,58.34
2022-09-11T13:28:44.216Z,57.81
2022-09-11T13:31:31.585Z,58.90
2022-09-11T13:34:00.213Z,59.48
2022-09-11T13:36:29.137Z,61.29
2022-09-11T13:38:58.449Z,59.91
2022-09-11T13:41:29.032Z,59.55
2022-09-11T13:44:01.360Z,58.43
2022-09-11T13:46:33.359Z,61.75
2022-09-11T13:49:12.955Z,59.94
2022-09-11T13:51:49.098Z,59.53
2022-09-11T13:54:29.976Z,58.74
2022-09-11T13:56:57.243Z,60.85
2022-09-11T13:59:34.678Z,61.00
2022-09-11T14:02:05.633Z,59.60
2022-09-11T14:04:40.036Z,59.24
2022-09-11T14:07:22.371Z,56.82
2022-09-11T14:10:04.507Z,55.49
2022-09-11T14:12:33.669Z,58.00
2022-09-11T14:15:10.310Z,56.78
2022-09-11T14:17:40.486Z,56.25
2022-09-11T14:20:16.705Z,55.60
2022-09-11T14:22:44.196Z,55.04
2022-09-11T14:25:24.166Z,54.13
2022-09-11T14:27:51.563Z,54.23
2022-09-11T14:30:36.283Z,54.08
2022-09-11T14:33:15.955Z,52.86
2022-09-11T14:35:45.414Z,53.68
2022-09-11T14:38:14.345Z,52.16
2022-09-11T14:40:51.629Z,55.19
2022-09-11T14:43:24.937Z,51.06
2022-09-11T14:45:52.398Z,52.17
2022-09-11T14:48:20.116Z,51.15
2022-09-11T14:50:47.520Z,52.67
2022-09-11T14:53:24.183Z,50.26
2022-09-11T14:55:51.758Z,49.65
2022-09-11T14:58:19.812Z,48.38
2022-09-11T15:00:47.820Z,48.49
2022-09-11T15:03:15.488Z,49.72
2022-09-11T15:05:44.192Z,49.87
2022-09-11T15:08:11.503Z,48.46
2022-09-11T15:10:39.914Z,48.13
2022-09-11T15:13:07.247Z,49.37
2022-09-11T15:15:35.025Z,48.97
2022-09-11T15:18:02.696Z,47.65
2022-09-11T15:20:30.059Z,48.35
2022-09-11T15:22:57.760Z,48.96
2022-09-11T15:25:25.378Z,48.68
2022-09-11T15:27:52.957Z,47.68
2022-09-11T15:30:21.311Z,49.89
2022-09-11T15:32:49.260Z,48.04
2022-09-11T15:35:20.484Z,46.72
2022-09-11T15:37:48.101Z,48.76
2022-09-11T15:40:16.915Z,50.11
2022-09-11T15:42:44.267Z,51.94
2022-09-11T15:45:12.971Z,52.39
2022-09-11T15:47:40.610Z,50.87
2022-09-11T15:50:08.942Z,49.49
2022-09-11T15:52:36.780Z,50.93
2022-09-11T15:55:05.242Z,50.40
2022-09-11T15:57:32.967Z,50.25
2022-09-11T16:00:00.285Z,50.00
2022-09-11T16:02:27.920Z,50.62
2022-09-11T16:04:55.518Z,51.39
2022-09-11T16:07:22.858Z,51.35
2022-09-11T16:09:50.196Z,50.45
2022-09-11T16:12:17.798Z,51.28
2022-09-11T16:14:45.588Z,49.84
2022-09-11T16:17:16.843Z,49.28
2022-09-11T16:19:44.787Z,49.79
2022-09-11T16:22:12.371Z,50.04
2022-09-11T16:24:39.677Z,51.98
2022-09-11T16:27:09.282Z,51.40
2022-09-11T16:30:15.909Z,51.03
2022-09-11T16:32:29.198Z,49.59
2022-09-11T16:34:57.581Z,51.89
2022-09-11T16:37:26.009Z,51.76
2022-09-11T16:39:53.555Z,51.13
2022-09-11T16:42:21.727Z,51.51
2022-09-11T16:44:49.983Z,51.38
2022-09-11T16:47:17.884Z,53.04
2022-09-11T16:50:05.869Z,52.06
2022-09-11T16:52:34.556Z,52.75
2022-09-11T16:55:02.253Z,52.37
2022-09-11T16:57:30.090Z,52.10
2022-09-11T16:59:57.785Z,53.90
2022-09-11T17:02:25.897Z,54.11
2022-09-11T17:04:53.232Z,52.78
2022-09-11T17:07:20.914Z,52.93
2022-09-11T17:09:48.439Z,54.60
2022-09-11T17:12:17.706Z,55.80
2022-09-11T17:14:45.269Z,55.15
2022-09-11T17:17:12.657Z,54.60
2022-09-11T17:19:39.994Z,54.89
2022-09-11T17:22:08.644Z,56.09
2022-09-11T17:24:36.385Z,56.43
2022-09-11T17:27:03.910Z,55.54
2022-09-11T17:29:31.514Z,55.14
2022-09-11T17:32:23.687Z,57.05
2022-09-11T17:34:47.773Z,56.84
2022-09-11T17:37:15.174Z,56.61
2022-09-11T17:39:42.952Z,56.37
2022-09-11T17:42:13.220Z,56.35
2022-09-11T17:44:44.346Z,55.68
2022-09-11T17:47:12.981Z,56.50
2022-09-11T17:49:40.569Z,57.57
2022-09-11T17:52:08.050Z,57.04
2022-09-11T17:54:35.842Z,57.43
2022-09-11T17:57:03.671Z,59.09
2022-09-11T17:59:31.378Z,58.79
2022-09-11T18:02:00.200Z,58.29
2022-09-11T18:04:28.249Z,59.53
2022-09-11T18:06:55.889Z,59.48
2022-09-11T18:09:23.536Z,60.43
2022-09-11T18:11:53.919Z,60.45
2022-09-11T18:14:23.130Z,59.54
2022-09-11T18:16:51.152Z,60.75
2022-09-11T18:19:22.522Z,61.03
2022-09-11T18:21:50.747Z,61.30
2022-09-11T18:24:20.147Z,62.09
2022-09-11T18:26:51.030Z,60.12
2022-09-11T18:29:21.009Z,61.85
2022-09-11T18:31:52.100Z,60.95
2022-09-11T18:34:22.927Z,60.66
2022-09-11T18:36:50.933Z,60.52
2022-09-11T18:39:19.802Z,60.58
2022-09-11T18:41:48.743Z,59.76
2022-09-11T18:44:19.926Z,59.85
2022-09-11T18:46:49.244Z,59.81
2022-09-11T18:49:16.972Z,59.74
2022-09-11T18:51:44.650Z,59.72
2022-09-11T18:54:17.706Z,59.66
2022-09-11T18:56:45.858Z,61.39
2022-09-11T18:59:13.939Z,60.37
2022-09-11T19:01:41.823Z,59.43
2022-09-11T19:04:11.127Z,61.88
2022-09-11T19:06:39.059Z,60.83
2022-09-11T19:09:10.522Z,59.54
2022-09-11T19:11:38.553Z,60.21
2022-09-11T19:14:08.728Z,61.45
2022-09-11T19:16:36.670Z,61.65
2022-09-11T19:19:04.461Z,61.42
2022-09-11T19:21:32.341Z,61.14
2022-09-11T19:24:00.870Z,61.41
2022-09-11T19:26:34.316Z,61.12
2022-09-11T19:29:02.217Z,61.04
2022-09-11T19:31:30.333Z,61.51
2022-09-11T19:34:01.653Z,62.36
2022-09-11T19:36:31.707Z,61.28
2022-09-11T19:39:00.511Z,60.87
2022-09-11T19:41:33.904Z,59.62
2022-09-11T19:44:02.430Z,59.52
2022-09-11T19:46:31.873Z,61.92
2022-09-11T19:49:02.889Z,62.68
2022-09-11T19:51:32.990Z,62.45
2022-09-11T19:54:02.776Z,63.86
2022-09-11T19:56:31.800Z,62.04
2022-09-11T19:59:00.462Z,61.92
2022-09-11T20:01:32.364Z,62.37
2022-09-11T20:04:00.894Z,63.08
2022-09-11T20:06:30.655Z,64.37
2022-09-11T20:09:19.795Z,63.90
2022-09-11T20:11:46.695Z,65.07
2022-09-11T20:14:14.045Z,63.28
2022-09-11T20:16:41.647Z,64.90
2022-09-11T20:19:09.988Z,65.11
2022-09-11T20:21:37.627Z,63.47
2022-09-11T20:24:07.257Z,63.26
2022-09-11T20:26:35.314Z,66.48
2022-09-11T20:29:06.897Z,66.32
2022-09-11T20:31:47.605Z,66.39
2022-09-11T20:34:19.375Z,66.21
2022-09-11T20:36:47.241Z,64.53
2022-09-11T20:39:15.340Z,66.41
2022-09-11T20:41:42.954Z,63.43
2022-09-11T20:44:10.829Z,66.94
2022-09-11T20:46:38.206Z,65.32
2022-09-11T20:49:05.547Z,66.71
2022-09-11T20:51:34.606Z,66.24
2022-09-11T20:54:02.175Z,65.70
2022-09-11T20:56:29.519Z,63.35
2022-09-11T20:58:57.708Z,64.49
2022-09-11T21:01:26.463Z,65.25
2022-09-11T21:03:55.928Z,64.44
2022-09-11T21:06:26.930Z,67.25
2022-09-11T21:09:03.916Z,67.79
2022-09-11T21:11:31.668Z,67.52
2022-09-11T21:13:59.353Z,69.67
2022-09-11T21:16:27.152Z,68.51
2022-09-11T21:18:57.163Z,67.39
2022-09-11T21:21:25.348Z,66.55
2022-09-11T21:23:56.793Z,66.72
2022-09-11T21:26:26.238Z,70.64
2022-09-11T21:28:53.646Z,68.51
2022-09-11T21:31:21.093Z,71.13
2022-09-11T21:33:48.963Z,68.60
2022-09-11T21:36:16.840Z,67.81
2022-09-11T21:38:44.196Z,68.16
2022-09-11T21:41:13.226Z,69.46
2022-09-11T21:43:40.942Z,68.77
2022-09-11T21:46:08.943Z,68.75
2022-09-11T21:48:38.430Z,68.12
2022-09-11T21:51:11.771Z,69.16
2022-09-11T21:53:40.367Z,67.36
2022-09-11T21:56:24.882Z,67.22
2022-09-11T21:58:53.391Z,66.70
2022-09-11T22:01:21.797Z,67.13
2022-09-11T22:03:50.143Z,66.48
2022-09-11T22:06:18.075Z,67.01
2022-09-11T22:08:46.683Z,68.47
2022-09-11T22:11:14.608Z,70.79
2022-09-11T22:13:41.929Z,72.48
2022-09-11T22:16:14.717Z,70.82
2022-09-11T22:18:42.611Z,70.72
2022-09-11T22:21:12.066Z,69.02
2022-09-11T22:23:39.443Z,73.10
2022-09-11T22:26:08.312Z,71.82
2022-09-11T22:28:37.286Z,72.04
2022-09-11T22:31:19.747Z,71.03
2022-09-11T22:33:47.734Z,74.53
2022-09-11T22:36:17.746Z,73.01
2022-09-11T22:38:45.456Z,72.67
2022-09-11T22:41:13.048Z,75.07
2022-09-11T22:43:40.366Z,77.02
2022-09-11T22:46:08.010Z,76.94
2022-09-11T22:48:35.987Z,77.44
2022-09-11T22:51:03.315Z,75.15
2022-09-11T22:53:30.714Z,75.32
2022-09-11T22:55:58.578Z,72.18
2022-09-11T22:58:25.952Z,72.65
2022-09-11T23:00:55.144Z,70.93
2022-09-11T23:03:23.104Z,70.65
2022-09-11T23:06:20.171Z,69.76
2022-09-11T23:08:48.333Z,70.53
2022-09-11T23:11:19.614Z,70.60
2022-09-11T23:13:48.561Z,70.32
2022-09-11T23:16:21.775Z,69.57
2022-09-11T23:19:00.382Z,70.84
2022-09-11T23:21:29.516Z,70.53
2022-09-11T23:23:57.875Z,71.12
2022-09-11T23:26:26.494Z,69.92
2022-09-11T23:28:55.526Z,72.81
2022-09-11T23:31:25.825Z,70.80
2022-09-11T23:33:55.434Z,69.20
2022-09-11T23:36:23.282Z,69.25
2022-09-11T23:38:50.930Z,69.33
2022-09-11T23:41:18.740Z,70.20
2022-09-11T23:43:46.629Z,71.11
2022-09-11T23:46:14.216Z,72.23
2022-09-11T23:48:41.959Z,70.06
2022-09-11T23:51:10.512Z,71.60
2022-09-11T23:53:39.384Z,70.48
2022-09-11T23:56:07.565Z,70.14
2022-09-11T23:58:39.328Z,69.26
